Rudyard, Montana
Current Conditions -  °F | °C
As of 10:53 AM on Thursday 23 Oct 2014 (Local Time) from KHVR Reporting Station
Clear Clear  
Wind Chill: 62°   Ceiling: Unl
Heat Index: 62°   Visibility: 10mi
Dew Point: 38°   Wind: 18mph
Humidity: 41%   Direction: 220°SW
Pressure: 29.77"   Gusts: NA
Location:  48.56°N, 110.56°W
Report Text: KHVR 231653Z AUTO 22016KT 10SM CLR 17/03 A2977 RMK AO2 PK WND 22026/1626 SLP078 T01670033
Loading
Personal Weather Stations






























Interactive Weather Map
Tropical Storm Tracking
New forecast layout! Learn more

10-Day Weather Forecast

Advertisements
Track Severe Weather on mobile